Time;durP1;ratioP1;P1;durP2;ratioP2;P2;SDS_P1;SDS_P2;PMS_P1;PMS_P2;Temp;Humidity;BMP_temperature;BMP_pressure;BME280_temperature;BME280_humidity;BME280_pressure;Samples;Min_cycle;Max_cycle;Signal;HPM_P1;HPM_P2
2023/01/24 00:01:24;;;;;;;7.22;4.85;;;;;;;16.54;54.54;101516.72;5072439;28;20052;-53
2023/01/24 00:03:52;;;;;;;8.25;4.80;;;;;;;16.51;54.27;101522.31;5072368;28;20060;-51
2023/01/24 00:06:22;;;;;;;7.00;4.57;;;;;;;16.49;54.30;101521.53;5072516;28;20048;-51
2023/01/24 00:08:50;;;;;;;7.00;4.53;;;;;;;16.46;54.27;101527.13;5071093;28;20052;-51
2023/01/24 00:11:19;;;;;;;6.57;4.65;;;;;;;16.43;54.44;101527.34;5072303;28;20056;-52
2023/01/24 00:13:47;;;;;;;7.38;4.50;;;;;;;16.39;54.49;101523.09;5072126;28;20136;-51
2023/01/24 00:16:18;;;;;;;6.97;4.57;;;;;;;16.36;54.46;101531.38;5071131;28;20589;-51
2023/01/24 00:18:48;;;;;;;8.40;4.85;;;;;;;16.34;54.61;101524.38;5072301;28;20409;-50
2023/01/24 00:21:19;;;;;;;7.15;4.40;;;;;;;16.30;54.52;101526.38;5072240;28;20436;-51
2023/01/24 00:23:50;;;;;;;6.75;4.15;;;;;;;16.26;54.71;101522.16;5072172;28;20558;-50
2023/01/24 00:26:23;;;;;;;7.93;4.57;;;;;;;16.25;54.79;101529.38;5071893;28;20083;-50
2023/01/24 00:28:51;;;;;;;6.75;4.75;;;;;;;16.23;54.49;101538.53;5071938;28;20059;-51
2023/01/24 00:31:19;;;;;;;6.85;4.40;;;;;;;16.19;54.53;101536.97;5072111;28;20428;-50
2023/01/24 00:33:48;;;;;;;7.90;4.72;;;;;;;16.14;54.58;101531.03;5071958;28;20557;-49
2023/01/24 00:36:17;;;;;;;7.65;4.93;;;;;;;16.12;54.64;101544.59;5071966;28;20091;-49
2023/01/24 00:38:45;;;;;;;7.88;4.60;;;;;;;16.09;54.67;101543.91;5071835;28;20041;-52
2023/01/24 00:41:14;;;;;;;7.63;4.85;;;;;;;16.03;54.54;101540.66;5072073;28;20040;-51
2023/01/24 00:43:42;;;;;;;6.60;4.40;;;;;;;16.00;54.84;101540.81;5071881;28;20444;-50
2023/01/24 00:46:13;;;;;;;6.55;4.50;;;;;;;15.96;54.87;101544.66;5072103;28;20049;-50
2023/01/24 00:48:41;;;;;;;7.30;4.70;;;;;;;15.90;54.89;101541.50;5071862;28;20087;-52
2023/01/24 00:51:10;;;;;;;6.63;4.78;;;;;;;15.93;54.74;101550.25;5071773;28;20098;-52
2023/01/24 00:53:38;;;;;;;7.00;4.93;;;;;;;15.92;54.75;101555.72;5071736;28;20482;-49
2023/01/24 00:56:07;;;;;;;7.32;4.97;;;;;;;15.89;54.77;101554.06;5071599;28;20045;-50
2023/01/24 00:58:37;;;;;;;7.47;5.05;;;;;;;15.86;54.85;101559.66;5071712;28;20110;-50
2023/01/24 01:01:05;;;;;;;7.13;4.70;;;;;;;15.82;54.83;101563.47;5071707;28;20106;-50
2023/01/24 01:03:35;;;;;;;7.53;4.72;;;;;;;15.80;54.81;101560.03;5071598;28;20053;-50
2023/01/24 01:06:05;;;;;;;7.47;4.97;;;;;;;15.78;54.71;101561.94;5074600;28;20139;-50
2023/01/24 01:08:33;;;;;;;7.80;4.70;;;;;;;15.73;54.88;101564.06;5075831;28;20048;-50
2023/01/24 01:11:02;;;;;;;6.43;4.20;;;;;;;15.74;54.82;101571.19;5075734;28;20049;-49
2023/01/24 01:13:30;;;;;;;7.30;4.88;;;;;;;15.68;54.67;101566.16;5075672;28;20058;-51
2023/01/24 01:16:05;;;;;;;7.97;4.88;;;;;;;15.69;54.89;101573.25;5075613;28;20048;-49
2023/01/24 01:18:34;;;;;;;6.72;4.47;;;;;;;15.67;54.93;101581.44;5075646;28;20075;-50
2023/01/24 01:21:03;;;;;;;7.47;4.93;;;;;;;15.64;54.86;101581.63;5075530;28;20047;-50
2023/01/24 01:23:32;;;;;;;7.97;4.72;;;;;;;15.61;54.98;101575.53;5075600;28;20049;-50
2023/01/24 01:26:01;;;;;;;8.18;4.85;;;;;;;15.57;55.00;101577.53;5075494;28;20044;-52
2023/01/24 01:28:30;;;;;;;7.63;4.70;;;;;;;15.57;54.87;101579.38;5075300;28;20127;-50
2023/01/24 01:30:58;;;;;;;7.75;4.72;;;;;;;15.51;54.90;101574.34;5075274;28;20040;-50
2023/01/24 01:33:28;;;;;;;7.38;4.85;;;;;;;15.50;54.92;101570.78;5075281;28;20119;-51
2023/01/24 01:35:58;;;;;;;8.73;5.07;;;;;;;15.50;54.99;101578.84;5075254;28;20094;-51
2023/01/24 01:38:27;;;;;;;8.50;4.85;;;;;;;15.48;54.95;101574.53;5075472;28;20072;-51
2023/01/24 01:40:57;;;;;;;6.85;4.78;;;;;;;15.45;54.96;101586.34;5075107;28;20162;-51
2023/01/24 01:43:27;;;;;;;8.60;4.88;;;;;;;15.43;54.96;101586.41;5074979;28;20055;-50
2023/01/24 01:45:59;;;;;;;8.13;4.90;;;;;;;15.41;55.00;101590.16;5075272;28;20440;-50
2023/01/24 01:48:37;;;;;;;8.38;4.70;;;;;;;15.39;54.93;101592.94;5075032;28;20094;-50
2023/01/24 01:51:12;;;;;;;8.10;4.82;;;;;;;15.36;54.96;101589.56;5075013;28;20121;-51
2023/01/24 01:53:45;;;;;;;6.85;4.60;;;;;;;15.33;55.03;101581.66;5074919;28;20051;-50
2023/01/24 01:56:26;;;;;;;6.90;4.82;;;;;;;15.32;54.98;101598.75;5074773;28;20054;-51
2023/01/24 01:58:58;;;;;;;6.72;4.50;;;;;;;15.30;54.97;101593.47;5074813;28;20052;-51
2023/01/24 02:01:28;;;;;;;5.95;4.68;;;;;;;15.28;54.92;101595.41;5074805;28;20052;-50
2023/01/24 02:04:06;;;;;;;7.53;5.07;;;;;;;15.26;54.86;101591.06;5074745;28;20246;-51
2023/01/24 02:06:44;;;;;;;7.53;4.88;;;;;;;15.24;54.93;101593.81;5074655;28;20045;-50
2023/01/24 02:09:17;;;;;;;6.85;4.30;;;;;;;15.22;55.06;101597.56;5074708;28;20611;-50
2023/01/24 02:11:44;;;;;;;7.13;4.40;;;;;;;15.20;54.99;101594.09;5074879;28;20496;-50
2023/01/24 02:17:03;;;;;;;6.95;4.53;;;;;;;15.14;54.74;101596.19;5073107;28;20382;-51
2023/01/24 02:19:47;;;;;;;7.45;4.47;;;;;;;15.14;54.95;101600.69;5074629;28;20048;-51
2023/01/24 02:22:17;;;;;;;;;;;;;;;15.11;55.02;101596.38;5074901;28;20124;-52
2023/01/24 02:24:57;;;;;;;6.47;4.55;;;;;;;15.09;54.85;101595.59;5074488;28;19982;-51
2023/01/24 02:27:27;;;;;;;6.75;4.47;;;;;;;15.08;54.95;101598.38;5074317;28;20059;-55
2023/01/24 02:29:57;;;;;;;7.63;4.78;;;;;;;15.05;54.79;101594.03;5074386;28;20070;-52
2023/01/24 02:32:27;;;;;;;7.07;4.60;;;;;;;15.04;54.95;101596.81;5074296;28;20041;-53
2023/01/24 02:34:55;;;;;;;7.30;4.70;;;;;;;14.97;54.84;101590.94;5074240;28;20071;-54
2023/01/24 02:37:24;;;;;;;7.75;4.65;;;;;;;14.98;54.78;101597.19;5074313;28;20401;-52
2023/01/24 02:39:58;;;;;;;7.03;4.60;;;;;;;14.97;55.02;101595.44;5074326;28;20091;-54
2023/01/24 02:42:30;;;;;;;;;;;;;;;14.96;54.86;101599.06;5074643;28;20490;-51
2023/01/24 02:45:03;;;;;;;6.50;4.32;;;;;;;14.94;54.73;101606.34;5074174;28;19920;-52
2023/01/24 02:47:35;;;;;;;;;;;;;;;14.93;54.92;101604.63;5074549;28;20048;-54
2023/01/24 02:50:06;;;;;;;7.65;4.30;;;;;;;14.87;55.05;101604.03;5074302;28;19999;-50
2023/01/24 02:55:22;;;;;;;6.88;4.43;;;;;;;14.81;54.87;101606.19;5073914;28;20043;-52
2023/01/24 02:58:06;;;;;;;7.45;4.57;;;;;;;14.83;55.06;101609.66;5073860;28;20075;-50
2023/01/24 03:00:36;;;;;;;6.97;4.32;;;;;;;14.81;54.94;101612.41;5073745;28;20044;-52
2023/01/24 03:03:04;;;;;;;7.22;4.20;;;;;;;14.80;55.08;101616.06;5073702;28;20079;-52
2023/01/24 03:05:46;;;;;;;6.25;4.00;;;;;;;14.74;54.87;101607.47;5073617;28;20059;-50
2023/01/24 03:08:15;;;;;;;7.50;4.57;;;;;;;14.75;54.74;101623.50;5073646;28;20052;-52
2023/01/24 03:10:46;;;;;;;6.43;4.55;;;;;;;14.74;54.89;101621.78;5073523;28;20109;-51
2023/01/24 03:35:31;;;;;;;5.40;3.78;;;;;;;14.51;54.66;101616.81;5072939;28;20124;-50
2023/01/24 03:40:45;;;;;;;6.97;4.18;;;;;;;14.54;54.80;101627.38;5073039;28;20048;-52
2023/01/24 03:43:13;;;;;;;6.15;3.90;;;;;;;14.51;54.79;101628.41;5072869;28;20503;-50
2023/01/24 03:45:43;;;;;;;6.00;4.28;;;;;;;14.50;54.52;101633.88;5072853;28;20090;-49
2023/01/24 03:48:13;;;;;;;6.60;4.30;;;;;;;14.49;54.67;101626.78;5072688;28;20508;-50
2023/01/24 03:53:32;;;;;;;6.78;4.28;;;;;;;14.43;54.79;101622.56;5072640;28;20051;-52
2023/01/24 03:56:01;;;;;;;6.28;3.72;;;;;;;14.43;54.75;101627.94;5072554;28;20071;-49
2023/01/24 03:58:33;;;;;;;6.57;4.45;;;;;;;14.39;54.93;101625.53;5072582;28;20068;-52
2023/01/24 04:01:02;;;;;;;5.95;3.75;;;;;;;14.39;54.38;101628.19;5072582;28;20131;-53
2023/01/24 04:03:32;;;;;;;5.85;4.13;;;;;;;14.38;54.89;101630.03;5072372;28;20102;-50
2023/01/24 04:06:00;;;;;;;6.40;3.90;;;;;;;14.36;54.96;101631.91;5072506;28;20117;-51
2023/01/24 04:08:29;;;;;;;5.63;3.70;;;;;;;14.34;55.04;101633.81;5072337;28;20076;-50
2023/01/24 04:10:58;;;;;;;6.45;4.47;;;;;;;14.30;55.12;101630.44;5072407;28;20094;-50
2023/01/24 04:13:26;;;;;;;6.65;4.15;;;;;;;14.31;54.89;101636.66;5072225;28;20106;-50
2023/01/24 04:15:54;;;;;;;7.00;4.32;;;;;;;14.29;55.14;101642.13;5072194;28;20127;-50
2023/01/24 04:18:23;;;;;;;6.57;4.18;;;;;;;14.27;54.67;101637.75;5072260;28;20413;-50
2023/01/24 04:20:52;;;;;;;7.03;4.03;;;;;;;14.27;55.00;101638.63;5072311;28;20052;-51
2023/01/24 04:23:20;;;;;;;6.32;4.00;;;;;;;14.24;54.86;101638.81;5072164;28;20044;-50
2023/01/24 04:25:54;;;;;;;6.65;4.30;;;;;;;14.22;54.75;101635.34;5072371;28;20128;-51
2023/01/24 04:28:23;;;;;;;5.63;3.80;;;;;;;14.21;54.90;101638.97;5072027;28;20052;-51
2023/01/24 04:30:57;;;;;;;6.75;4.50;;;;;;;14.20;54.82;101636.38;5072093;28;20128;-50
2023/01/24 04:33:29;;;;;;;5.90;4.03;;;;;;;14.20;54.74;101641.75;5070976;28;20060;-50
2023/01/24 04:35:58;;;;;;;6.25;3.88;;;;;;;14.20;54.88;101637.25;5071927;28;20056;-52
2023/01/24 04:38:26;;;;;;;5.63;3.88;;;;;;;14.19;55.06;101638.19;5072007;28;20040;-50
2023/01/24 04:40:59;;;;;;;5.90;3.80;;;;;;;14.20;55.44;101639.94;5071202;28;20047;-53
2023/01/24 04:43:27;;;;;;;5.63;3.40;;;;;;;14.25;55.72;101637.84;5072175;28;20036;-50
2023/01/24 04:45:57;;;;;;;5.97;3.65;;;;;;;14.36;55.91;101636.41;5071991;28;20501;-51
2023/01/24 04:48:26;;;;;;;5.80;3.47;;;;;;;14.44;56.01;101639.53;5071989;28;20045;-52
2023/01/24 04:50:59;;;;;;;5.63;3.70;;;;;;;14.53;55.92;101634.56;5071975;28;20101;-50
2023/01/24 04:53:28;;;;;;;4.82;3.13;;;;;;;14.61;55.96;101639.53;5071773;28;20060;-51
2023/01/24 04:56:00;;;;;;;5.38;3.65;;;;;;;14.72;55.84;101639.78;5071711;28;20471;-52
2023/01/24 04:58:28;;;;;;;6.00;3.70;;;;;;;14.79;55.71;101643.88;5071758;28;20051;-52
2023/01/24 05:00:57;;;;;;;5.55;3.70;;;;;;;14.89;55.71;101650.47;5071685;28;20075;-53
2023/01/24 05:03:29;;;;;;;5.80;3.30;;;;;;;15.02;55.67;101641.72;5071700;28;20044;-51
2023/01/24 05:05:57;;;;;;;4.78;3.33;;;;;;;15.11;55.52;101651.94;5070607;28;20076;-54
2023/01/24 05:08:26;;;;;;;5.75;3.22;;;;;;;15.22;55.46;101654.00;5071680;28;20053;-51
2023/01/24 05:10:54;;;;;;;6.40;3.50;;;;;;;15.30;55.32;101652.63;5072021;28;20439;-52
2023/01/24 05:13:23;;;;;;;5.07;3.20;;;;;;;15.40;55.21;101648.44;5071602;28;20048;-52
2023/01/24 05:15:52;;;;;;;5.38;3.33;;;;;;;15.48;55.09;101653.38;5071633;28;20045;-52
2023/01/24 05:18:21;;;;;;;5.50;3.60;;;;;;;15.57;55.03;101651.97;5071577;28;20049;-51
2023/01/24 05:20:51;;;;;;;5.15;3.35;;;;;;;15.66;55.05;101654.16;5071581;28;20516;-51
2023/01/24 05:23:19;;;;;;;5.15;3.50;;;;;;;15.76;54.90;101649.97;5071500;28;20123;-51
2023/01/24 05:25:47;;;;;;;5.30;3.13;;;;;;;15.82;54.78;101649.56;5071520;28;20131;-52
2023/01/24 05:28:17;;;;;;;5.18;3.28;;;;;;;15.90;54.71;101657.19;5071354;28;20090;-52
2023/01/24 05:30:45;;;;;;;4.78;3.33;;;;;;;15.94;54.58;101662.31;5071464;28;20049;-51
2023/01/24 05:33:13;;;;;;;5.57;3.38;;;;;;;15.95;54.64;101661.34;5071357;28;20040;-51
2023/01/24 05:35:44;;;;;;;5.32;3.67;;;;;;;15.96;54.49;101659.53;5071404;28;20497;-51
2023/01/24 05:38:13;;;;;;;6.47;3.70;;;;;;;15.95;54.59;101661.34;5070292;28;20049;-51
2023/01/24 05:40:41;;;;;;;5.53;3.47;;;;;;;15.95;54.52;101661.34;5071294;28;20074;-50
2023/01/24 05:43:09;;;;;;;7.20;3.92;;;;;;;15.93;54.52;101655.19;5071275;28;20053;-51
2023/01/24 05:45:41;;;;;;;6.07;3.47;;;;;;;15.89;54.50;101644.69;5071182;28;20045;-51
2023/01/24 05:48:10;;;;;;;6.15;3.70;;;;;;;15.87;54.61;101655.56;5071169;28;20055;-51
2023/01/24 05:50:38;;;;;;;5.35;3.35;;;;;;;15.86;54.51;101656.50;5071480;28;20073;-51
2023/01/24 05:53:06;;;;;;;6.20;3.80;;;;;;;15.83;54.54;101662.09;5074830;28;20048;-52
2023/01/24 05:55:36;;;;;;;5.57;3.33;;;;;;;15.78;54.71;101658.78;5074910;28;20120;-52
2023/01/24 05:58:07;;;;;;;5.15;3.42;;;;;;;15.77;54.64;101665.13;5074158;28;20052;-51
2023/01/24 06:00:35;;;;;;;5.60;3.50;;;;;;;15.72;54.77;101660.00;5073362;28;20056;-51
2023/01/24 06:03:04;;;;;;;5.78;3.70;;;;;;;15.71;54.71;101668.19;5074631;28;20044;-51
2023/01/24 06:05:32;;;;;;;6.45;3.80;;;;;;;15.64;54.70;101659.63;5074786;28;20098;-52
2023/01/24 06:08:01;;;;;;;5.78;3.45;;;;;;;15.64;54.68;101667.69;5074679;28;20386;-51
2023/01/24 06:10:32;;;;;;;5.55;3.53;;;;;;;15.59;54.67;101675.13;5074524;28;20080;-50
2023/01/24 06:13:03;;;;;;;6.60;3.75;;;;;;;15.57;54.76;101685.09;5074491;28;20044;-50
2023/01/24 06:15:31;;;;;;;5.50;3.75;;;;;;;15.54;54.78;101681.72;5074601;28;20118;-52
2023/01/24 06:17:59;;;;;;;5.72;3.53;;;;;;;15.51;54.80;101688.16;5074783;28;20097;-51
2023/01/24 06:20:28;;;;;;;5.13;3.28;;;;;;;15.47;54.86;101686.59;5074628;28;20519;-51
2023/01/24 06:23:03;;;;;;;5.80;3.45;;;;;;;15.44;54.96;101692.13;5074744;28;20048;-51
2023/01/24 06:25:32;;;;;;;5.50;3.47;;;;;;;15.40;55.09;101690.59;5074310;28;20500;-51
2023/01/24 06:28:00;;;;;;;7.35;3.72;;;;;;;15.37;55.07;101697.03;5074226;28;20057;-51
2023/01/24 06:30:30;;;;;;;6.22;4.07;;;;;;;15.31;55.22;101683.91;5074477;28;20123;-52
2023/01/24 06:33:15;;;;;;;5.70;3.88;;;;;;;15.30;55.04;101692.06;5074322;28;20048;-54
2023/01/24 06:35:54;;;;;;;6.20;4.05;;;;;;;15.26;55.09;101699.47;5074221;28;20115;-53
2023/01/24 06:38:25;;;;;;;7.28;4.55;;;;;;;15.22;54.97;101697.00;5074121;28;20424;-51
2023/01/24 06:40:57;;;;;;;6.40;4.22;;;;;;;15.20;55.09;101699.78;5072721;28;20040;-51
2023/01/24 06:43:26;;;;;;;6.72;4.47;;;;;;;15.14;54.98;101701.00;5073057;28;20054;-51
2023/01/24 06:45:55;;;;;;;7.50;4.28;;;;;;;15.13;54.95;101703.78;5073712;28;20478;-53
2023/01/24 06:48:25;;;;;;;9.13;4.70;;;;;;;15.09;54.88;101702.22;5073948;28;20041;-54
2023/01/24 06:50:54;;;;;;;7.63;4.78;;;;;;;15.07;55.17;101705.00;5074715;28;20079;-52
2023/01/24 06:53:22;;;;;;;8.00;5.00;;;;;;;15.04;54.89;101704.28;5074040;28;20044;-53
2023/01/24 06:55:50;;;;;;;7.07;4.57;;;;;;;15.01;54.76;101701.78;5073795;28;20106;-54
2023/01/24 06:58:18;;;;;;;9.25;5.43;;;;;;;14.98;54.94;101702.81;5074081;28;20056;-52
2023/01/24 07:00:47;;;;;;;7.57;5.30;;;;;;;14.96;54.80;101703.84;5074032;28;20491;-51
2023/01/24 07:03:19;;;;;;;7.10;4.88;;;;;;;14.94;54.78;101711.13;5073242;28;20401;-52
2023/01/24 07:05:49;;;;;;;7.75;5.03;;;;;;;14.92;54.72;101704.97;5073902;28;20044;-51
2023/01/24 07:08:20;;;;;;;9.07;5.40;;;;;;;14.89;54.73;101711.41;5073777;28;20482;-51
2023/01/24 07:10:49;;;;;;;8.30;5.32;;;;;;;14.85;54.73;101713.38;5073682;28;20044;-51
2023/01/24 07:13:17;;;;;;;9.23;5.40;;;;;;;14.85;54.64;101716.03;5073804;28;20493;-52
2023/01/24 07:15:46;;;;;;;7.93;5.60;;;;;;;14.80;54.54;101718.13;5073579;28;20049;-51
2023/01/24 07:18:17;;;;;;;8.73;5.43;;;;;;;14.79;54.49;101716.41;5073793;28;20472;-51
2023/01/24 07:20:47;;;;;;;9.80;6.20;;;;;;;14.74;54.68;101723.84;5073508;28;20445;-51
2023/01/24 07:23:21;;;;;;;10.35;5.97;;;;;;;14.73;54.47;101727.47;5073384;28;20448;-51
2023/01/24 07:25:49;;;;;;;;;;;;;;;14.71;54.55;101734.75;5073968;28;20493;-51
2023/01/24 07:28:18;;;;;;;9.20;5.72;;;;;;;14.68;54.46;101732.25;5073007;28;20003;-51
2023/01/24 07:30:46;;;;;;;8.82;5.72;;;;;;;14.65;54.44;101729.69;5072968;28;20055;-51
2023/01/24 07:33:16;;;;;;;9.15;5.72;;;;;;;14.65;54.45;101729.69;5072710;28;20082;-50
2023/01/24 07:35:44;;;;;;;15.02;6.20;;;;;;;14.64;55.18;101733.34;5073124;28;20079;-56
2023/01/24 07:38:14;;;;;;;11.45;6.07;;;;;;;14.62;54.85;101737.94;5072745;28;20049;-50
2023/01/24 07:40:42;;;;;;;10.98;5.47;;;;;;;14.59;55.20;101736.28;5072721;28;20044;-51
2023/01/24 07:43:11;;;;;;;11.23;5.60;;;;;;;14.58;55.05;101729.19;5072607;28;20066;-50
2023/01/24 07:45:39;;;;;;;14.23;6.05;;;;;;;14.57;54.97;101735.50;5072603;28;20051;-50
2023/01/24 07:48:08;;;;;;;10.30;5.47;;;;;;;14.55;54.98;101739.19;5072576;28;20046;-50
2023/01/24 07:50:36;;;;;;;9.18;5.85;;;;;;;14.50;54.87;101734.09;5072697;28;20106;-51
2023/01/24 07:53:05;;;;;;;10.85;5.47;;;;;;;14.54;54.83;101746.38;5072640;28;20052;-51
2023/01/24 07:55:34;;;;;;;10.85;6.03;;;;;;;14.56;55.01;101743.63;5072392;28;20037;-51
2023/01/24 07:58:03;;;;;;;9.43;5.90;;;;;;;14.63;55.21;101749.53;5072440;28;20044;-50
2023/01/24 08:00:31;;;;;;;8.52;5.57;;;;;;;14.70;55.29;101749.13;5072391;28;20048;-50
2023/01/24 08:03:00;;;;;;;8.15;5.50;;;;;;;14.78;55.19;101752.28;5070458;28;20074;-51
2023/01/24 08:05:28;;;;;;;10.85;5.53;;;;;;;14.86;55.32;101755.41;5071361;28;20048;-49
2023/01/24 08:07:56;;;;;;;8.10;5.32;;;;;;;14.93;55.22;101760.44;5071362;28;20115;-50
2023/01/24 08:10:24;;;;;;;9.35;5.70;;;;;;;14.94;54.98;101751.44;5071139;28;20044;-50
2023/01/24 08:12:57;;;;;;;9.52;5.30;;;;;;;15.00;55.01;101760.03;5071700;28;20136;-50
2023/01/24 08:15:25;;;;;;;8.13;5.10;;;;;;;14.99;54.96;101760.13;5071862;28;20481;-50
2023/01/24 08:17:53;;;;;;;7.95;4.75;;;;;;;15.04;55.08;101775.03;5072215;28;20527;-51
2023/01/24 08:20:21;;;;;;;8.77;5.70;;;;;;;15.05;54.97;101765.13;5072199;28;20131;-52
2023/01/24 08:22:55;;;;;;;8.48;5.50;;;;;;;15.06;54.89;101761.53;5072061;28;20552;-49
2023/01/24 08:25:26;;;;;;;8.98;5.38;;;;;;;15.05;54.91;101765.13;5072332;28;20072;-50
2023/01/24 08:27:55;;;;;;;7.90;5.30;;;;;;;15.02;54.82;101771.56;5071959;28;20060;-50
2023/01/24 08:30:25;;;;;;;8.55;5.47;;;;;;;15.03;54.86;101767.03;5072154;28;20068;-49
2023/01/24 08:33:03;;;;;;;9.15;5.13;;;;;;;15.04;54.80;101779.53;5072141;28;20049;-51
2023/01/24 08:35:32;;;;;;;8.25;5.38;;;;;;;15.04;54.82;101776.84;5072043;28;20051;-50
2023/01/24 08:38:00;;;;;;;7.93;5.40;;;;;;;15.03;54.75;101777.78;5072386;28;20450;-50
2023/01/24 08:40:29;;;;;;;8.75;5.20;;;;;;;15.00;54.77;101776.16;5072270;28;20409;-51
2023/01/24 08:43:06;;;;;;;9.20;5.53;;;;;;;15.00;54.80;101776.16;5072388;28;20047;-49
2023/01/24 08:45:36;;;;;;;8.85;5.45;;;;;;;14.99;54.84;101776.25;5072394;28;20505;-52
2023/01/24 08:48:04;;;;;;;8.40;5.40;;;;;;;14.95;54.73;101771.97;5071928;28;20044;-50
2023/01/24 08:50:32;;;;;;;8.38;5.13;;;;;;;14.98;54.81;101779.88;5072063;28;20045;-51
2023/01/24 08:53:00;;;;;;;8.55;5.43;;;;;;;14.89;54.84;101771.38;5071958;28;20478;-50
2023/01/24 08:55:29;;;;;;;10.23;5.53;;;;;;;14.94;54.84;101778.28;5072167;28;20086;-50
2023/01/24 08:58:00;;;;;;;8.48;5.40;;;;;;;14.92;54.66;101780.19;5072250;28;20127;-50
2023/01/24 09:00:31;;;;;;;8.25;5.32;;;;;;;14.92;54.71;101773.00;5072357;28;20052;-50
2023/01/24 09:03:00;;;;;;;9.02;5.60;;;;;;;14.89;54.70;101776.75;5072339;28;20071;-50
2023/01/24 09:05:29;;;;;;;8.35;5.28;;;;;;;14.88;54.61;101787.56;5072248;28;20537;-50
2023/01/24 09:07:58;;;;;;;9.18;5.53;;;;;;;14.86;54.67;101779.59;5075009;28;20048;-53
2023/01/24 09:10:27;;;;;;;8.50;5.40;;;;;;;14.84;54.55;101789.53;5072314;28;20131;-53
2023/01/24 09:12:55;;;;;;;8.65;5.40;;;;;;;14.86;54.67;101793.03;5072455;28;20071;-53
2023/01/24 09:15:23;;;;;;;7.47;5.20;;;;;;;14.86;54.42;101787.66;5072096;28;20045;-52
2023/01/24 09:17:54;;;;;;;8.55;5.80;;;;;;;14.86;54.71;101793.03;5071387;28;20055;-52
2023/01/24 09:20:23;;;;;;;8.48;5.55;;;;;;;14.86;54.51;101792.13;5071209;28;20052;-53
2023/01/24 09:22:51;;;;;;;7.72;5.50;;;;;;;14.85;54.50;101790.41;5071309;28;20045;-51
2023/01/24 09:25:19;;;;;;;7.93;5.40;;;;;;;14.81;54.65;101781.66;5071362;28;20060;-51
2023/01/24 09:27:54;;;;;;;8.95;5.63;;;;;;;14.82;54.61;101786.06;5075204;28;20060;-53
2023/01/24 09:30:23;;;;;;;9.30;5.55;;;;;;;14.79;54.48;101786.25;5075275;28;20501;-52
2023/01/24 09:32:51;;;;;;;7.38;5.32;;;;;;;14.76;54.51;101781.00;5075249;28;20048;-54
2023/01/24 09:35:21;;;;;;;7.15;5.15;;;;;;;14.79;54.50;101783.56;5075224;28;20076;-49
2023/01/24 09:37:53;;;;;;;8.82;5.80;;;;;;;14.79;54.54;101775.50;5075089;28;20542;-54
2023/01/24 09:40:24;;;;;;;8.27;5.53;;;;;;;14.79;54.46;101774.63;5075031;28;20447;-54
2023/01/24 09:43:02;;;;;;;8.73;5.45;;;;;;;14.77;54.50;101777.41;5074836;28;20060;-52
2023/01/24 09:45:35;;;;;;;7.60;5.53;;;;;;;14.77;54.49;101776.53;5074952;28;20055;-53
2023/01/24 09:48:07;;;;;;;8.73;5.43;;;;;;;14.78;54.58;101778.28;5074866;28;20162;-52
2023/01/24 09:50:43;;;;;;;7.65;4.93;;;;;;;14.78;54.48;101772.91;5074872;28;20058;-51
2023/01/24 09:53:18;;;;;;;7.65;5.00;;;;;;;14.76;54.42;101770.28;5074751;28;20444;-52
2023/01/24 09:55:47;;;;;;;9.30;5.28;;;;;;;14.81;54.53;101772.72;5074758;28;20090;-52
2023/01/24 09:58:30;;;;;;;9.15;5.60;;;;;;;14.76;54.60;101764.03;5074709;28;20124;-54
2023/01/24 10:01:01;;;;;;;8.38;5.68;;;;;;;14.86;54.57;101767.97;5074678;28;20052;-53
2023/01/24 10:03:29;;;;;;;8.05;5.35;;;;;;;14.86;54.52;101766.16;5074590;28;20048;-52
2023/01/24 10:06:07;;;;;;;9.13;5.63;;;;;;;14.87;54.70;101756.28;5074526;28;20044;-54
2023/01/24 10:08:40;;;;;;;8.32;5.60;;;;;;;14.84;54.59;101751.94;5074510;28;20050;-51
2023/01/24 10:11:32;;;;;;;7.03;5.00;;;;;;;14.89;54.58;101759.75;5074485;28;20535;-51
2023/01/24 10:14:31;;;;;;;7.28;5.25;;;;;;;14.91;54.48;101751.59;5074506;28;20462;-52
2023/01/24 10:17:26;;;;;;;6.97;4.93;;;;;;;14.95;54.70;101750.47;5074362;28;20131;-53
2023/01/24 10:20:28;;;;;;;7.25;5.13;;;;;;;14.99;54.47;101744.00;5074090;28;20489;-50
2023/01/24 10:23:08;;;;;;;7.15;4.70;;;;;;;15.04;54.65;101747.28;5074229;28;20478;-51
2023/01/24 10:25:49;;;;;;;7.50;5.25;;;;;;;15.06;54.44;101745.41;5074184;28;20044;-53
2023/01/24 10:28:24;;;;;;;7.57;4.63;;;;;;;15.11;54.51;101744.19;5073636;28;20421;-53
2023/01/24 10:31:08;;;;;;;7.32;4.78;;;;;;;15.14;54.27;101738.63;5074105;28;20048;-51
2023/01/24 10:33:44;;;;;;;8.70;5.00;;;;;;;15.14;54.23;101735.94;5074064;28;20053;-51
2023/01/24 10:36:20;;;;;;;7.32;4.82;;;;;;;15.16;53.95;101738.56;5074060;28;20052;-53
2023/01/24 10:38:49;;;;;;;8.73;4.70;;;;;;;15.24;53.99;101736.28;5072684;28;20453;-51
2023/01/24 10:41:21;;;;;;;7.70;5.38;;;;;;;15.30;54.05;101733.25;5074075;28;20083;-52
2023/01/24 10:43:55;;;;;;;7.20;4.80;;;;;;;15.31;53.98;101729.63;5073931;28;20046;-54
2023/01/24 10:47:11;;;;;;;6.68;4.68;;;;;;;15.26;53.98;101725.47;5073907;28;20053;-53
2023/01/24 10:49:44;;;;;;;7.60;4.88;;;;;;;15.22;53.95;101722.06;5056682;28;20101;-52
2023/01/24 10:52:15;;;;;;;7.20;4.88;;;;;;;15.18;54.06;101723.22;5073818;28;20053;-51
2023/01/24 10:54:51;;;;;;;6.50;4.78;;;;;;;15.16;54.09;101725.13;5073810;28;20044;-52
2023/01/24 10:57:28;;;;;;;7.72;4.90;;;;;;;15.14;54.26;101717.13;5073669;28;20076;-51
2023/01/24 11:00:01;;;;;;;6.47;4.40;;;;;;;15.11;54.51;101711.94;5073618;28;20056;-50
2023/01/24 11:02:32;;;;;;;7.43;4.75;;;;;;;15.08;54.46;101705.88;5073617;28;20075;-51
2023/01/24 11:05:02;;;;;;;7.70;4.90;;;;;;;15.08;54.50;101716.63;5072449;28;20044;-52
2023/01/24 11:07:33;;;;;;;7.28;5.05;;;;;;;15.06;54.46;101707.78;5073538;28;20075;-50
2023/01/24 11:10:16;;;;;;;7.10;4.57;;;;;;;15.07;54.53;101714.88;5073458;28;20079;-51
2023/01/24 11:12:49;;;;;;;7.38;4.80;;;;;;;15.05;54.50;101700.63;5073610;28;20056;-54
2023/01/24 11:15:22;;;;;;;7.50;4.90;;;;;;;15.05;54.68;101703.34;5073220;28;20068;-52
2023/01/24 11:17:56;;;;;;;7.35;4.20;;;;;;;15.02;54.60;101685.56;5073719;28;20050;-50
2023/01/24 11:20:31;;;;;;;7.22;4.70;;;;;;;15.01;54.64;101683.84;5073128;28;20044;-53
2023/01/24 11:23:03;;;;;;;;;;;;;;;15.00;54.52;101681.25;5073571;28;20051;-52
2023/01/24 11:25:33;;;;;;;6.90;4.80;;;;;;;15.00;54.54;101681.25;5073235;28;19920;-51
2023/01/24 11:28:04;;;;;;;7.63;5.27;;;;;;;14.98;54.38;101675.09;5073140;28;20060;-49
2023/01/24 11:30:40;;;;;;;6.85;4.70;;;;;;;14.96;54.47;101674.28;5073091;28;20511;-49
2023/01/24 11:33:27;;;;;;;7.55;5.00;;;;;;;14.96;54.54;101671.59;5073021;28;20045;-50
2023/01/24 11:35:58;;;;;;;8.27;5.00;;;;;;;14.94;54.45;101663.63;5072964;28;20152;-51
2023/01/24 11:38:33;;;;;;;6.13;4.25;;;;;;;14.94;54.56;101665.44;5072830;28;20045;-51
2023/01/24 11:41:11;;;;;;;7.20;4.38;;;;;;;14.93;54.61;101664.59;5072711;28;20048;-50
2023/01/24 11:43:55;;;;;;;7.68;4.70;;;;;;;14.93;54.60;101663.72;5072740;28;20102;-51
2023/01/24 11:46:45;;;;;;;6.35;4.35;;;;;;;14.86;54.67;101653.34;5072630;28;20661;-52
2023/01/24 11:49:35;;;;;;;6.25;4.50;;;;;;;14.89;54.62;101658.53;5072398;28;20402;-52
2023/01/24 11:52:15;;;;;;;7.88;5.00;;;;;;;14.88;54.71;101654.13;5072631;28;20056;-53
2023/01/24 11:54:53;;;;;;;7.38;4.50;;;;;;;14.87;54.73;101657.75;5072443;28;20086;-52
2023/01/24 11:57:33;;;;;;;7.20;4.80;;;;;;;14.88;54.78;101655.94;5072466;28;20044;-51
2023/01/24 12:00:17;;;;;;;6.97;4.75;;;;;;;14.87;54.72;101655.06;5072219;28;20048;-51
2023/01/24 12:03:08;;;;;;;7.40;4.60;;;;;;;14.87;54.89;101652.38;5072413;28;20402;-53
2023/01/24 12:05:49;;;;;;;7.63;4.53;;;;;;;14.89;54.70;101652.28;5072380;28;20467;-50
2023/01/24 12:08:33;;;;;;;6.53;4.10;;;;;;;14.91;54.71;101649.50;5072206;28;20047;-52
2023/01/24 12:11:07;;;;;;;6.57;4.38;;;;;;;14.91;54.78;101650.38;5072684;28;20456;-51
2023/01/24 12:14:12;;;;;;;5.38;4.10;;;;;;;14.92;55.03;101648.56;5072278;28;20044;-51
2023/01/24 12:16:56;;;;;;;7.20;4.40;;;;;;;14.89;55.23;101642.41;5072217;28;20044;-51
2023/01/24 12:19:56;;;;;;;6.55;4.57;;;;;;;14.99;55.11;101644.59;5072164;28;20055;-50
2023/01/24 12:22:27;;;;;;;6.53;4.15;;;;;;;15.00;55.11;101638.25;5072018;28;20119;-51